createdAt,value
2022-08-26T00:01:32.970Z,20.16
2022-08-26T00:05:32.189Z,20.11
2022-08-26T00:09:29.527Z,19.87
2022-08-26T00:13:26.719Z,19.89
2022-08-26T00:17:24.197Z,19.95
2022-08-26T00:21:24.901Z,19.81
2022-08-26T00:25:22.703Z,19.84
2022-08-26T00:29:21.272Z,19.83
2022-08-26T00:33:21.440Z,19.86
2022-08-26T00:37:18.759Z,19.88
2022-08-26T00:41:18.107Z,19.65
2022-08-26T00:45:16.266Z,19.58
2022-08-26T00:49:36.231Z,19.45
2022-08-26T00:53:43.566Z,19.61
2022-08-26T00:57:41.568Z,19.38
2022-08-26T01:01:43.180Z,19.36
2022-08-26T01:05:44.035Z,19.39
2022-08-26T01:09:41.187Z,19.16
2022-08-26T01:13:40.526Z,19.13
2022-08-26T01:17:38.743Z,19.18
2022-08-26T01:21:54.744Z,19.24
2022-08-26T01:26:05.078Z,19.09
2022-08-26T01:30:05.659Z,18.96
2022-08-26T01:34:17.823Z,18.91
2022-08-26T01:38:18.431Z,19.28
2022-08-26T01:42:19.848Z,19.19
2022-08-26T01:46:19.783Z,19.17
2022-08-26T01:50:30.739Z,19.26
2022-08-26T01:54:28.044Z,19.12
2022-08-26T01:58:36.603Z,19.15
2022-08-26T02:02:33.804Z,19.15
2022-08-26T02:06:31.989Z,18.80
2022-08-26T02:10:29.823Z,18.87
2022-08-26T02:14:34.835Z,19.00
2022-08-26T02:18:36.610Z,18.91
2022-08-26T02:22:34.653Z,18.76
2022-08-26T02:26:31.681Z,18.83
2022-08-26T02:30:33.692Z,18.80
2022-08-26T02:34:33.176Z,18.92
2022-08-26T02:38:30.282Z,18.88
2022-08-26T02:42:28.494Z,18.92
2022-08-26T02:46:29.852Z,18.99
2022-08-26T02:50:27.555Z,18.81
2022-08-26T02:54:24.591Z,18.88
2022-08-26T02:58:21.733Z,18.76
2022-08-26T03:02:18.823Z,18.72
2022-08-26T03:06:16.071Z,18.68
2022-08-26T03:10:13.423Z,18.63
2022-08-26T03:14:12.011Z,18.70
2022-08-26T03:18:09.837Z,18.54
2022-08-26T03:22:07.368Z,18.44
2022-08-26T03:26:05.851Z,18.48
2022-08-26T03:30:22.787Z,18.54
2022-08-26T03:34:20.189Z,18.42
2022-08-26T03:38:25.805Z,18.31
2022-08-26T03:42:23.344Z,18.34
2022-08-26T03:46:20.971Z,18.38
2022-08-26T03:50:23.033Z,18.18
2022-08-26T03:54:21.383Z,18.32
2022-08-26T03:58:19.056Z,18.26
2022-08-26T04:02:16.771Z,18.18
2022-08-26T04:06:14.894Z,18.21
2022-08-26T04:10:20.276Z,18.23
2022-08-26T04:14:23.490Z,18.17
2022-08-26T04:18:21.533Z,18.07
2022-08-26T04:22:24.018Z,18.18
2022-08-26T04:26:23.903Z,18.19
2022-08-26T04:30:21.955Z,18.23
2022-08-26T04:34:19.454Z,18.18
2022-08-26T04:38:16.987Z,18.21
2022-08-26T04:42:21.036Z,18.29
2022-08-26T04:46:25.456Z,18.40
2022-08-26T04:50:23.866Z,18.40
2022-08-26T04:54:22.167Z,18.40
2022-08-26T04:58:22.351Z,18.44
2022-08-26T05:02:20.914Z,18.46
2022-08-26T05:06:19.505Z,18.69
2022-08-26T05:10:16.555Z,18.72
2022-08-26T05:14:16.143Z,18.79
2022-08-26T05:18:16.516Z,18.88
2022-08-26T05:22:14.584Z,18.87
2022-08-26T05:26:12.091Z,18.77
2022-08-26T05:30:13.922Z,18.88
2022-08-26T05:34:11.042Z,19.07
2022-08-26T05:38:13.436Z,19.27
2022-08-26T05:42:10.464Z,19.22
2022-08-26T05:46:08.136Z,19.53
2022-08-26T05:50:06.115Z,19.54
2022-08-26T05:54:04.159Z,19.71
2022-08-26T05:58:02.769Z,20.03
2022-08-26T06:01:59.929Z,20.03
2022-08-26T06:05:57.248Z,20.28
2022-08-26T06:10:01.624Z,20.36
2022-08-26T06:14:11.852Z,20.63
2022-08-26T06:18:09.462Z,20.65
2022-08-26T06:22:27.162Z,20.91
2022-08-26T06:26:24.426Z,21.06
2022-08-26T06:30:21.886Z,21.31
2022-08-26T06:34:20.136Z,21.55
2022-08-26T06:38:17.939Z,21.86
2022-08-26T06:42:14.937Z,21.86
2022-08-26T06:46:17.298Z,22.08
2022-08-26T06:50:14.369Z,22.37
2022-08-26T06:54:11.672Z,22.31
2022-08-26T06:58:09.919Z,22.51
2022-08-26T07:02:07.434Z,22.65
2022-08-26T07:06:05.574Z,22.86
2022-08-26T07:10:05.779Z,23.03
2022-08-26T07:14:04.457Z,23.59
2022-08-26T07:18:03.208Z,23.79
2022-08-26T07:22:04.217Z,23.88
2022-08-26T07:26:11.564Z,24.26
2022-08-26T07:30:09.528Z,24.37
2022-08-26T07:34:13.972Z,24.76
2022-08-26T07:38:12.889Z,25.01
2022-08-26T07:42:13.815Z,25.16
2022-08-26T07:46:18.610Z,24.87
2022-08-26T07:50:49.549Z,25.54
2022-08-26T07:54:41.558Z,25.94
2022-08-26T07:58:38.919Z,26.20
2022-08-26T08:02:38.504Z,26.66
2022-08-26T08:06:37.522Z,27.23
2022-08-26T08:10:36.605Z,28.08
2022-08-26T08:14:36.523Z,29.06
2022-08-26T08:18:34.076Z,29.63
2022-08-26T08:22:32.556Z,30.17
2022-08-26T08:26:30.082Z,30.66
2022-08-26T08:30:28.508Z,30.76
2022-08-26T08:34:28.706Z,30.38
2022-08-26T08:38:27.287Z,30.36
2022-08-26T08:42:45.761Z,30.92
2022-08-26T08:46:46.912Z,31.79
2022-08-26T08:50:53.994Z,31.98
2022-08-26T08:54:51.138Z,32.72
2022-08-26T08:59:04.344Z,33.44
2022-08-26T09:03:19.310Z,34.19
2022-08-26T09:07:23.524Z,34.65
2022-08-26T09:11:21.783Z,35.35
2022-08-26T09:15:46.767Z,35.67
2022-08-26T09:19:52.830Z,35.85
2022-08-26T09:23:52.907Z,35.94
2022-08-26T09:27:53.508Z,36.04
2022-08-26T09:31:52.198Z,36.25
2022-08-26T09:35:52.389Z,36.39
2022-08-26T09:39:49.439Z,36.45
2022-08-26T09:44:14.656Z,36.16
2022-08-26T09:48:29.030Z,36.92
2022-08-26T09:52:27.568Z,37.07
2022-08-26T09:56:35.555Z,37.54
2022-08-26T10:00:58.647Z,38.06
2022-08-26T10:04:59.337Z,37.97
2022-08-26T10:09:10.943Z,38.19
2022-08-26T10:13:42.975Z,38.33
2022-08-26T10:17:51.795Z,38.04
2022-08-26T10:22:07.633Z,38.13
2022-08-26T10:26:15.862Z,38.59
2022-08-26T10:30:19.444Z,39.24
2022-08-26T10:34:17.969Z,39.32
2022-08-26T10:38:22.827Z,37.85
2022-08-26T10:42:37.626Z,37.78
2022-08-26T10:46:45.618Z,37.48
2022-08-26T10:50:47.943Z,37.24
2022-08-26T10:54:56.501Z,37.54
2022-08-26T10:59:16.694Z,37.85
2022-08-26T11:03:54.213Z,38.12
2022-08-26T11:08:20.861Z,38.25
2022-08-26T11:13:05.015Z,38.66
2022-08-26T11:17:02.495Z,38.71
2022-08-26T11:20:59.565Z,39.01
2022-08-26T11:24:56.486Z,38.87
2022-08-26T11:28:53.722Z,39.74
2022-08-26T11:32:56.367Z,38.42
2022-08-26T11:36:59.149Z,39.15
2022-08-26T11:41:09.020Z,38.11
2022-08-26T11:45:39.074Z,38.24
2022-08-26T11:49:37.910Z,39.90
2022-08-26T11:53:41.121Z,40.87
2022-08-26T11:57:52.003Z,40.50
2022-08-26T12:01:53.508Z,41.21
2022-08-26T12:05:53.996Z,40.07
2022-08-26T12:09:59.264Z,38.71
2022-08-26T12:14:16.118Z,37.00
2022-08-26T12:18:30.093Z,34.88
2022-08-26T12:22:32.695Z,34.03
2022-08-26T12:26:37.232Z,33.32
2022-08-26T12:30:34.581Z,32.83
2022-08-26T12:34:31.757Z,33.02
2022-08-26T12:38:32.038Z,32.63
2022-08-26T12:42:42.467Z,31.37
2022-08-26T12:46:39.552Z,30.36
2022-08-26T12:50:47.146Z,29.58
2022-08-26T12:54:59.792Z,29.10
2022-08-26T12:59:23.290Z,28.25
2022-08-26T13:03:35.333Z,26.09
2022-08-26T13:07:32.437Z,22.67
2022-08-26T13:11:45.156Z,21.57
2022-08-26T13:15:42.197Z,20.88
2022-08-26T13:19:39.200Z,20.60
2022-08-26T13:23:40.600Z,20.67
2022-08-26T13:27:39.423Z,20.86
2022-08-26T13:31:39.928Z,21.20
2022-08-26T13:35:36.931Z,21.23
2022-08-26T13:39:34.112Z,21.44
2022-08-26T13:43:31.779Z,21.48
2022-08-26T13:47:28.945Z,21.53
2022-08-26T13:51:27.499Z,21.49
2022-08-26T13:55:28.041Z,21.58
2022-08-26T13:59:25.132Z,21.56
2022-08-26T14:03:22.532Z,21.43
2022-08-26T14:07:19.624Z,21.64
2022-08-26T14:11:17.116Z,21.71
2022-08-26T14:15:16.886Z,21.54
2022-08-26T14:19:14.156Z,21.67
2022-08-26T14:23:13.986Z,21.68
2022-08-26T14:27:13.212Z,21.68
2022-08-26T14:31:10.352Z,21.56
2022-08-26T14:35:10.152Z,21.45
2022-08-26T14:39:11.838Z,21.53
2022-08-26T14:43:09.715Z,21.52
2022-08-26T14:47:07.057Z,21.51
2022-08-26T14:51:05.453Z,21.58
2022-08-26T14:55:02.428Z,21.59
2022-08-26T14:58:59.860Z,21.69
2022-08-26T15:02:58.590Z,21.63
2022-08-26T15:06:58.903Z,21.63
2022-08-26T15:10:56.025Z,21.27
2022-08-26T15:14:53.721Z,21.38
2022-08-26T15:18:51.796Z,21.40
2022-08-26T15:22:48.983Z,21.36
2022-08-26T15:26:49.603Z,21.40
2022-08-26T15:30:46.722Z,21.45
2022-08-26T15:34:44.029Z,21.51
2022-08-26T15:38:42.602Z,21.67
2022-08-26T15:42:39.711Z,21.36
2022-08-26T15:46:38.379Z,21.66
2022-08-26T15:50:35.690Z,21.47
2022-08-26T15:54:32.734Z,21.45
2022-08-26T15:58:29.985Z,21.22
2022-08-26T16:02:31.796Z,21.43
2022-08-26T16:06:33.650Z,21.58
2022-08-26T16:10:34.494Z,21.54
2022-08-26T16:14:31.579Z,21.73
2022-08-26T16:18:28.992Z,21.82
2022-08-26T16:22:27.090Z,21.83
2022-08-26T16:26:32.515Z,22.25
2022-08-26T16:30:29.535Z,22.13
2022-08-26T16:34:26.552Z,21.79
2022-08-26T16:38:23.617Z,22.01
2022-08-26T16:42:20.742Z,21.81
2022-08-26T16:46:18.518Z,21.55
2022-08-26T16:50:17.782Z,21.59
2022-08-26T16:54:14.872Z,21.37
2022-08-26T16:58:11.951Z,21.36
2022-08-26T17:02:11.676Z,21.01
2022-08-26T17:06:11.385Z,20.96
2022-08-26T17:10:34.096Z,20.74
2022-08-26T17:14:50.904Z,20.81
2022-08-26T17:41:00.926Z,20.19
2022-08-26T17:50:49.825Z,21.07
2022-08-26T18:00:47.501Z,20.89
2022-08-26T18:04:49.112Z,20.74
2022-08-26T18:14:43.079Z,20.96
2022-08-26T18:18:53.622Z,20.51
2022-08-26T18:22:54.498Z,21.04
2022-08-26T18:26:51.528Z,21.00
2022-08-26T18:30:48.554Z,20.92
2022-08-26T18:34:45.576Z,20.98
2022-08-26T18:38:42.747Z,20.89
2022-08-26T18:42:41.462Z,21.03
2022-08-26T18:46:38.488Z,20.80
2022-08-26T18:50:40.312Z,20.79
2022-08-26T18:54:37.678Z,20.72
2022-08-26T18:58:34.875Z,20.52
2022-08-26T19:02:32.825Z,20.46
2022-08-26T19:06:33.124Z,20.62
2022-08-26T19:10:30.286Z,20.87
2022-08-26T19:14:28.672Z,20.88
2022-08-26T19:18:26.034Z,20.70
2022-08-26T19:22:23.539Z,20.65
2022-08-26T19:26:20.557Z,20.53
2022-08-26T19:30:17.551Z,20.41
2022-08-26T19:34:15.421Z,20.14
2022-08-26T19:38:16.769Z,20.00
2022-08-26T19:42:14.298Z,19.73
2022-08-26T19:46:20.170Z,19.59
2022-08-26T19:50:17.908Z,19.53
2022-08-26T19:54:15.380Z,19.46
2022-08-26T19:58:12.393Z,19.47
2022-08-26T20:02:11.139Z,19.57
2022-08-26T20:06:13.374Z,19.40
2022-08-26T20:10:13.779Z,19.47
2022-08-26T20:14:10.877Z,19.62
2022-08-26T20:18:26.980Z,19.70
2022-08-26T20:22:24.500Z,19.42
2022-08-26T20:26:21.631Z,19.60
2022-08-26T20:30:18.758Z,19.73
2022-08-26T20:34:18.634Z,19.89
2022-08-26T20:38:18.490Z,19.84
2022-08-26T20:42:20.361Z,19.77
2022-08-26T20:46:24.544Z,19.64
2022-08-26T20:50:24.651Z,19.72
2022-08-26T20:54:28.415Z,19.67
2022-08-26T20:58:26.110Z,19.63
2022-08-26T21:02:23.155Z,19.68
2022-08-26T21:06:21.163Z,19.61
2022-08-26T21:10:18.970Z,19.68
2022-08-26T21:14:19.101Z,19.74
2022-08-26T21:18:16.447Z,19.76
2022-08-26T21:22:14.060Z,19.51
2022-08-26T21:26:15.593Z,19.70
2022-08-26T21:30:16.109Z,19.46
2022-08-26T21:34:18.631Z,19.43
2022-08-26T21:38:17.994Z,19.59
2022-08-26T21:42:15.041Z,19.51
2022-08-26T21:46:16.288Z,19.54
2022-08-26T21:50:16.002Z,19.48
2022-08-26T21:54:14.003Z,19.51
2022-08-26T21:58:12.614Z,19.45
2022-08-26T22:02:10.486Z,19.28
2022-08-26T22:06:08.041Z,19.10
2022-08-26T22:10:05.676Z,19.22
2022-08-26T22:14:03.145Z,18.89
2022-08-26T22:18:00.579Z,19.04
2022-08-26T22:21:58.759Z,19.18
2022-08-26T22:25:57.173Z,18.82
2022-08-26T22:29:54.339Z,18.38
2022-08-26T22:33:51.905Z,18.68
2022-08-26T22:37:49.528Z,18.75
2022-08-26T22:41:48.701Z,19.01
2022-08-26T22:45:48.668Z,19.03
2022-08-26T22:49:46.989Z,19.11
2022-08-26T22:53:45.292Z,18.98
2022-08-26T22:57:42.371Z,19.23
2022-08-26T23:01:43.296Z,19.09
2022-08-26T23:05:41.539Z,19.08
2022-08-26T23:09:38.699Z,19.28
2022-08-26T23:13:36.811Z,19.19
2022-08-26T23:17:35.459Z,19.20
2022-08-26T23:21:32.931Z,19.18
2022-08-26T23:25:31.154Z,19.17
2022-08-26T23:29:29.015Z,19.09
2022-08-26T23:33:46.275Z,19.07
2022-08-26T23:37:48.465Z,18.96
2022-08-26T23:41:46.453Z,18.92
2022-08-26T23:45:43.930Z,18.93
2022-08-26T23:49:41.896Z,18.98
2022-08-26T23:53:39.065Z,18.88
2022-08-26T23:57:36.978Z,18.78
